METAR Data
IDs: Format: Raw Decoded Include TAF

Data at: 1241 UTC 16 Jul 2019

RJNT 161200Z 36003KT 9999 FEW010 SCT015 BKN070 22/21 Q1012
RJNT 161100Z 36004KT 9999 FEW010 SCT015 BKN070 23/21 Q1012
RJNT 161000Z 35003KT 9999 FEW010 SCT035 BKN060 23/21 Q1011
RJNT 160900Z 36004KT 9999 FEW010 BKN035 24/21 Q1011
RJNT 160800Z 36005KT 9999 FEW010 SCT020 BKN035 24/21 Q1011
RJNT 160700Z 36005KT 9999 FEW010 SCT020 BKN040 25/20 Q1011
RJNT 160600Z 05003KT 360V100 9999 FEW010 SCT020 BKN040 25/20 Q1011
RJNT 160500Z 35004KT 9999 FEW005 SCT010 BKN015 24/20 Q1011
RJNT 160400Z 01006KT 9999 FEW006 SCT015 BKN020 24/21 Q1011
RJNT 160300Z 36008KT 9999 FEW006 BKN009 BKN015 24/21 Q1011
RJNT 160200Z 36007KT 9999 FEW003 BKN006 BKN009 22/21 Q1011
RJNT 160136Z 36007KT 6000 SCT003 BKN005 BKN007 22/21 Q1011 RMK 3ST003 5ST005 7ST007 A2988
RJNT 160100Z 36007KT 3500 -DZ BR FEW002 BKN003 BKN005 22/21 Q1011
RJNT 160048Z 35007KT 3000 -DZ BR FEW002 BKN003 BKN005 22/21 Q1011 RMK 1ST002 5ST003 7ST005 A2988
RJNT 160000Z 36008KT 2000 -DZ BR FEW002 BKN003 BKN005 21/21 Q1011
RJNT 152338Z 36006KT 2000 -DZ BR FEW002 BKN003 BKN005 22/21 Q1011 RMK 1ST002 6ST003 7ST005 A2988
RJNT 152300Z 36004KT 2500 -DZ BR FEW002 BKN003 BKN005 22/21 Q1011
RJNT 152200Z VRB02KT 3000 -DZ MIFG BR FEW001 BKN003 BKN005 22/21 Q1011
RJNT 152144Z VRB02KT 1800 -DZ BR FEW001 BKN002 BKN004 21/21 Q1011 RMK 1ST001 5ST002 7ST004 A2987
RJNT 152110Z VRB02KT 1000 -DZ BR FEW001 BKN002 BKN004 21/21 Q1011 RMK 2ST001 5ST002 7ST004 A2987